Rio Cuarto, Rio Cuarto Las Higueras Airport (SAOC)

NameRio Cuarto Las Higueras Airport
CityRio Cuarto
CountryArgentina
ICAOSAOC
IATARCU
Altitude421 m
CoordinatesGoogle Map
Live Air TrafficLiveATC.net
METARSAOC 251700Z 16010KT 9999 BKN020 OVC100 17/14 Q1017
2020-04-25 17:00:00 Wind: South-Southeast (160°) 5.14 m/s - Visibility: > 10000 m - Temperature: 17 °C - Dew point: 14 °C - Humidity: 82.6% - Pressure: 1017 hPa

Sorry, no flights used the airport in this database.